createdAt,value
2018-01-02T00:02:12.915Z,10.67
2018-01-02T00:04:41.232Z,14.60
2018-01-02T00:07:09.529Z,13.10
2018-01-02T00:09:37.840Z,7.23
2018-01-02T00:12:06.902Z,10.93
2018-01-02T00:14:35.219Z,8.50
2018-01-02T00:17:04.286Z,5.33
2018-01-02T00:19:32.578Z,7.93
2018-01-02T00:22:01.645Z,7.30
2018-01-02T00:24:29.948Z,8.20
2018-01-02T00:26:58.238Z,12.47
2018-01-02T00:29:28.066Z,8.30
2018-01-02T00:31:56.364Z,9.20
2018-01-02T00:34:25.437Z,8.70
2018-01-02T00:36:53.806Z,9.10
2018-01-02T00:39:22.128Z,7.87
2018-01-02T00:41:51.183Z,7.20
2018-01-02T00:44:19.464Z,6.77
2018-01-02T00:46:47.764Z,6.43
2018-01-02T00:49:16.083Z,8.00
2018-01-02T00:51:44.390Z,4.97
2018-01-02T00:54:12.700Z,5.97
2018-01-02T00:56:42.506Z,6.10
2018-01-02T00:59:10.932Z,6.47
2018-01-02T01:01:40.035Z,5.70
2018-01-02T01:04:08.350Z,5.40
2018-01-02T01:06:36.668Z,8.10
2018-01-02T01:09:04.983Z,10.23
2018-01-02T01:11:33.305Z,5.53
2018-01-02T01:14:01.618Z,6.53
2018-01-02T01:16:29.939Z,7.30
2018-01-02T01:18:58.289Z,10.87
2018-01-02T01:21:26.602Z,9.23
2018-01-02T01:23:54.915Z,9.90
2018-01-02T01:26:23.415Z,9.57
2018-01-02T01:28:51.771Z,7.90
2018-01-02T01:31:20.069Z,10.90
2018-01-02T01:33:48.399Z,5.60
2018-01-02T01:36:17.466Z,9.57
2018-01-02T01:38:47.273Z,9.40
2018-01-02T01:41:15.767Z,10.13
2018-01-02T01:43:44.857Z,16.27
2018-01-02T01:46:13.385Z,17.90
2018-01-02T01:48:55.587Z,13.17
2018-01-02T01:51:23.913Z,8.60
2018-01-02T01:53:52.267Z,12.20
2018-01-02T01:56:21.461Z,6.67
2018-01-02T01:58:49.769Z,11.97
2018-01-02T02:01:18.069Z,12.13
2018-01-02T02:03:46.390Z,13.27
2018-01-02T02:06:15.457Z,13.77
2018-01-02T02:08:46.723Z,10.37
2018-01-02T02:11:16.268Z,12.13
2018-01-02T02:13:44.584Z,14.60
2018-01-02T02:16:12.913Z,17.97
2018-01-02T02:18:41.237Z,9.73
2018-01-02T02:21:09.535Z,12.97
2018-01-02T02:23:37.857Z,10.50
2018-01-02T02:26:06.969Z,14.37
2018-01-02T02:28:35.285Z,11.17
2018-01-02T02:31:03.603Z,12.13
2018-01-02T02:33:31.897Z,8.10
2018-01-02T02:36:01.004Z,18.20
2018-01-02T02:38:29.379Z,14.60
2018-01-02T02:41:08.319Z,10.60
2018-01-02T02:43:36.665Z,10.40
2018-01-02T02:46:05.777Z,12.03
2018-01-02T02:48:34.364Z,9.93
2018-01-02T02:51:03.457Z,16.13
2018-01-02T02:53:31.781Z,12.83
2018-01-02T02:56:00.062Z,14.20
2018-01-02T02:58:28.481Z,10.87
2018-01-02T03:00:56.783Z,14.33
2018-01-02T03:03:26.655Z,12.63
2018-01-02T03:05:54.957Z,11.37
2018-01-02T03:08:23.279Z,10.83
2018-01-02T03:10:52.341Z,18.20
2018-01-02T03:13:20.669Z,17.83
2018-01-02T03:15:49.772Z,17.20
2018-01-02T03:18:18.873Z,10.70
2018-01-02T03:20:47.209Z,10.77
2018-01-02T03:23:15.521Z,18.97
2018-01-02T03:25:44.589Z,8.80
2018-01-02T03:28:12.914Z,15.37
2018-01-02T03:30:41.982Z,14.90
2018-01-02T03:33:10.319Z,5.80
2018-01-02T03:35:38.631Z,10.90
2018-01-02T03:38:07.025Z,9.87
2018-01-02T03:40:36.940Z,11.73
2018-01-02T03:43:05.372Z,13.53
2018-01-02T03:45:33.903Z,13.33
2018-01-02T03:48:02.429Z,14.03
2018-01-02T03:50:30.773Z,10.90
2018-01-02T03:52:59.153Z,10.53
2018-01-02T03:55:27.457Z,11.30
2018-01-02T03:57:55.777Z,10.47
2018-01-02T04:00:24.107Z,13.17
2018-01-02T04:02:52.515Z,11.47
2018-01-02T04:05:21.601Z,7.30
2018-01-02T04:07:49.931Z,10.67
2018-01-02T04:10:18.257Z,7.57
2018-01-02T04:12:46.543Z,7.83
2018-01-02T04:15:15.136Z,5.40
2018-01-02T04:17:43.420Z,7.70
2018-01-02T04:20:11.787Z,5.17
2018-01-02T04:22:40.151Z,7.70
2018-01-02T04:25:08.557Z,9.33
2018-01-02T04:27:36.862Z,9.17
2018-01-02T04:30:05.945Z,6.13
2018-01-02T04:32:35.029Z,5.70
2018-01-02T04:35:03.321Z,4.90
2018-01-02T04:37:31.616Z,6.80
2018-01-02T04:40:00.697Z,9.53
2018-01-02T04:42:30.524Z,7.30
2018-01-02T04:45:00.318Z,6.40
2018-01-02T04:47:28.619Z,7.40
2018-01-02T04:49:57.718Z,6.63
2018-01-02T04:52:27.580Z,8.70
2018-01-02T04:54:55.875Z,14.00
2018-01-02T04:57:24.196Z,9.80
2018-01-02T04:59:54.027Z,15.23
2018-01-02T05:02:23.114Z,14.30
2018-01-02T05:04:52.169Z,15.17
2018-01-02T05:07:20.484Z,11.83
2018-01-02T05:09:49.707Z,13.13
2018-01-02T05:12:18.779Z,16.97
2018-01-02T05:14:47.096Z,15.73
2018-01-02T05:17:16.156Z,21.20
2018-01-02T05:19:45.211Z,21.93
2018-01-02T05:22:13.541Z,25.20
2018-01-02T05:24:41.838Z,16.73
2018-01-02T05:27:10.145Z,23.73
2018-01-02T05:29:39.265Z,17.00
2018-01-02T05:32:07.613Z,14.43
2018-01-02T05:34:36.693Z,19.27
2018-01-02T05:37:05.751Z,13.40
2018-01-02T05:39:34.048Z,24.43
2018-01-02T05:42:02.357Z,10.30
2018-01-02T05:44:30.658Z,18.20
2018-01-02T05:46:59.731Z,18.60
2018-01-02T05:49:28.067Z,15.83
2018-01-02T05:51:56.380Z,14.00
2018-01-02T05:54:24.715Z,24.00
2018-01-02T05:56:53.028Z,17.57
2018-01-02T05:59:21.336Z,15.73
2018-01-02T06:01:49.641Z,15.40
2018-01-02T06:04:17.941Z,10.70
2018-01-02T06:06:46.268Z,21.00
2018-01-02T06:09:14.588Z,10.90
2018-01-02T06:11:43.655Z,14.87
2018-01-02T06:14:11.994Z,12.00
2018-01-02T06:16:40.452Z,17.20
2018-01-02T06:19:08.758Z,15.00
2018-01-02T06:21:37.094Z,13.00
2018-01-02T06:24:05.407Z,12.77
2018-01-02T06:26:34.612Z,13.57
2018-01-02T06:29:03.762Z,14.70
2018-01-02T06:31:32.078Z,18.10
2018-01-02T06:34:00.400Z,14.37
2018-01-02T06:36:28.727Z,12.63
2018-01-02T06:38:57.454Z,11.13
2018-01-02T06:41:26.524Z,10.73
2018-01-02T06:43:54.878Z,6.97
2018-01-02T06:46:23.212Z,8.63
2018-01-02T06:48:52.288Z,12.83
2018-01-02T06:51:21.354Z,9.60
2018-01-02T06:53:49.661Z,9.00
2018-01-02T06:56:17.992Z,8.50
2018-01-02T06:58:46.313Z,5.33
2018-01-02T07:01:14.862Z,4.57
2018-01-02T07:03:43.176Z,7.00
2018-01-02T07:06:11.628Z,6.60
2018-01-02T07:08:39.912Z,9.50
2018-01-02T07:11:08.224Z,6.97
2018-01-02T07:13:36.520Z,3.60
2018-01-02T07:16:05.606Z,3.10
2018-01-02T07:18:33.939Z,7.73
2018-01-02T07:21:02.266Z,7.17
2018-01-02T07:23:30.677Z,3.20
2018-01-02T07:25:59.744Z,4.00
2018-01-02T07:28:28.050Z,4.47
2018-01-02T07:30:56.930Z,5.40
2018-01-02T07:33:25.226Z,6.13
2018-01-02T07:35:53.600Z,3.03
2018-01-02T07:38:21.975Z,4.50
2018-01-02T07:40:50.323Z,8.73
2018-01-02T07:43:18.646Z,8.40
2018-01-02T07:45:46.997Z,5.87
2018-01-02T07:48:15.324Z,5.90
2018-01-02T07:50:43.839Z,8.77
2018-01-02T07:53:12.995Z,4.20
2018-01-02T07:55:41.319Z,7.10
2018-01-02T07:58:10.394Z,6.83
2018-01-02T08:00:38.706Z,7.80
2018-01-02T08:03:07.018Z,9.93
2018-01-02T08:05:35.443Z,9.60
2018-01-02T08:08:03.796Z,8.00
2018-01-02T08:10:32.168Z,10.87
2018-01-02T08:13:00.475Z,10.00
2018-01-02T08:15:29.485Z,7.33
2018-01-02T08:17:58.592Z,3.33
2018-01-02T08:20:26.910Z,6.57
2018-01-02T08:22:55.217Z,11.77
2018-01-02T08:25:23.518Z,6.97
2018-01-02T08:27:51.818Z,9.57
2018-01-02T08:30:20.901Z,6.50
2018-01-02T08:32:49.971Z,6.93
2018-01-02T08:35:18.384Z,5.97
2018-01-02T08:37:46.836Z,13.00
2018-01-02T08:40:15.129Z,5.47
2018-01-02T08:42:43.430Z,8.83
2018-01-02T08:45:11.762Z,10.73
2018-01-02T08:47:40.071Z,12.47
2018-01-02T08:50:08.374Z,7.13
2018-01-02T08:52:36.691Z,12.53
2018-01-02T08:55:05.042Z,12.07
2018-01-02T08:57:33.350Z,10.67
2018-01-02T09:00:02.426Z,8.03
2018-01-02T09:02:32.258Z,12.80
2018-01-02T09:05:01.497Z,9.00
2018-01-02T09:07:29.912Z,12.80
2018-01-02T09:09:58.257Z,11.00
2018-01-02T09:12:32.122Z,7.20
2018-01-02T09:15:00.434Z,8.37
2018-01-02T09:17:29.561Z,10.50
2018-01-02T09:19:57.877Z,9.63
2018-01-02T09:22:27.891Z,8.53
2018-01-02T09:24:56.200Z,9.57
2018-01-02T09:27:25.302Z,7.20
2018-01-02T09:29:54.384Z,8.87
2018-01-02T09:32:23.483Z,9.43
2018-01-02T09:34:51.790Z,9.60
2018-01-02T09:37:20.867Z,10.73
2018-01-02T09:39:50.125Z,7.20
2018-01-02T09:42:18.458Z,12.93
2018-01-02T09:44:46.752Z,16.50
2018-01-02T09:47:15.804Z,9.07
2018-01-02T09:49:44.202Z,13.37
2018-01-02T09:52:12.580Z,7.97
2018-01-02T09:54:40.934Z,9.30
2018-01-02T09:57:09.236Z,15.23
2018-01-02T09:59:37.586Z,12.23
2018-01-02T10:02:05.900Z,12.07
2018-01-02T10:04:34.256Z,13.57
2018-01-02T10:07:03.408Z,11.20
2018-01-02T10:09:31.777Z,20.37
2018-01-02T10:12:00.096Z,10.73
2018-01-02T10:14:29.208Z,12.23
2018-01-02T10:16:57.522Z,8.17
2018-01-02T10:19:25.937Z,13.20
2018-01-02T10:21:54.290Z,12.53
2018-01-02T10:24:22.614Z,15.77
2018-01-02T10:26:50.975Z,13.47
2018-01-02T10:29:19.349Z,18.33
2018-01-02T10:31:47.674Z,14.00
2018-01-02T10:34:16.014Z,18.40
2018-01-02T10:36:44.558Z,9.70
2018-01-02T10:39:12.876Z,13.47
2018-01-02T10:41:41.261Z,10.20
2018-01-02T10:44:09.605Z,6.80
2018-01-02T10:46:37.910Z,9.53
2018-01-02T10:49:06.316Z,13.60
2018-01-02T10:51:34.687Z,10.53
2018-01-02T10:54:03.018Z,11.10
2018-01-02T10:56:32.089Z,9.37
2018-01-02T10:59:00.454Z,11.07
2018-01-02T11:01:28.741Z,14.67
2018-01-02T11:03:57.848Z,12.90
2018-01-02T11:06:26.149Z,13.00
2018-01-02T11:08:54.506Z,9.43
2018-01-02T11:11:22.821Z,12.43
2018-01-02T11:13:53.808Z,15.83
2018-01-02T11:16:22.127Z,9.57
2018-01-02T11:18:51.213Z,11.13
2018-01-02T11:21:19.514Z,15.40
2018-01-02T11:23:48.604Z,11.27
2018-01-02T11:26:17.817Z,17.60
2018-01-02T11:28:46.237Z,10.77
2018-01-02T11:31:14.544Z,14.87
2018-01-02T11:33:42.957Z,12.80
2018-01-02T11:36:12.764Z,13.83
2018-01-02T11:38:41.155Z,11.40
2018-01-02T11:41:09.483Z,9.50
2018-01-02T11:43:37.823Z,11.30
2018-01-02T11:46:06.124Z,11.47
2018-01-02T11:48:35.458Z,10.70
2018-01-02T11:51:03.792Z,17.20
2018-01-02T11:53:32.128Z,11.10
2018-01-02T11:56:00.439Z,11.83
2018-01-02T11:58:28.747Z,14.97
2018-01-02T12:00:57.069Z,13.17
2018-01-02T12:03:25.407Z,13.63
2018-01-02T12:05:54.490Z,16.57
2018-01-02T12:08:22.791Z,19.30
2018-01-02T12:10:51.093Z,14.30
2018-01-02T12:13:20.175Z,21.00
2018-01-02T12:15:49.277Z,20.67
2018-01-02T12:18:18.355Z,13.20
2018-01-02T12:20:47.421Z,16.23
2018-01-02T12:23:15.757Z,21.80
2018-01-02T12:25:44.092Z,13.30
2018-01-02T12:28:12.437Z,12.97
2018-01-02T12:30:40.772Z,22.37
2018-01-02T12:33:10.011Z,18.70
2018-01-02T12:35:39.069Z,13.33
2018-01-02T12:38:07.390Z,15.30
2018-01-02T12:40:36.474Z,16.13
2018-01-02T12:43:04.795Z,17.37
2018-01-02T12:45:33.113Z,19.60
2018-01-02T12:48:01.421Z,18.47
2018-01-02T12:50:29.739Z,10.70
2018-01-02T12:52:58.046Z,17.30
2018-01-02T12:55:26.413Z,14.80
2018-01-02T12:57:54.768Z,28.23
2018-01-02T13:00:23.873Z,11.80
2018-01-02T13:02:52.181Z,17.90
2018-01-02T13:05:20.575Z,16.40
2018-01-02T13:07:48.900Z,25.67
2018-01-02T13:10:18.085Z,14.57
2018-01-02T13:12:46.421Z,21.10
2018-01-02T13:15:14.846Z,21.40
2018-01-02T13:17:43.155Z,24.40
2018-01-02T13:20:12.793Z,18.80
2018-01-02T13:22:41.116Z,18.93
2018-01-02T13:25:09.601Z,23.67
2018-01-02T13:27:37.949Z,17.87
2018-01-02T13:30:06.595Z,25.70
2018-01-02T13:32:34.951Z,20.40
2018-01-02T13:35:03.337Z,21.10
2018-01-02T13:37:31.835Z,15.87
2018-01-02T13:40:01.677Z,24.30
2018-01-02T13:42:30.747Z,17.67
2018-01-02T13:44:59.839Z,19.60
2018-01-02T13:47:28.269Z,14.87
2018-01-02T13:49:57.365Z,20.83
2018-01-02T13:52:26.473Z,16.00
2018-01-02T13:54:54.801Z,24.67
2018-01-02T13:57:23.115Z,20.90
2018-01-02T13:59:51.429Z,20.50
2018-01-02T14:02:19.757Z,21.83
2018-01-02T14:04:48.063Z,16.73
2018-01-02T14:07:17.167Z,20.10
2018-01-02T14:09:46.353Z,16.70
2018-01-02T14:12:14.644Z,20.20
2018-01-02T14:14:43.741Z,20.47
2018-01-02T14:17:12.078Z,17.80
2018-01-02T14:19:40.431Z,19.00
2018-01-02T14:22:08.736Z,21.60
2018-01-02T14:24:37.053Z,22.73
2018-01-02T14:27:05.409Z,23.13
2018-01-02T14:29:33.735Z,21.83
2018-01-02T14:32:02.809Z,20.33
2018-01-02T14:34:31.136Z,20.83
2018-01-02T14:36:59.453Z,15.37
2018-01-02T14:39:27.763Z,18.23
2018-01-02T14:41:56.094Z,17.70
2018-01-02T14:44:24.407Z,26.47
2018-01-02T14:46:52.729Z,17.73
2018-01-02T14:49:21.801Z,15.47
2018-01-02T14:51:50.127Z,16.77
2018-01-02T14:54:18.456Z,16.67
2018-01-02T14:56:46.776Z,16.07
2018-01-02T14:59:15.835Z,18.73
2018-01-02T15:01:44.397Z,14.43
2018-01-02T15:04:12.753Z,33.43
2018-01-02T15:06:41.074Z,19.50
2018-01-02T15:09:09.380Z,17.17
2018-01-02T15:11:39.179Z,19.97
2018-01-02T15:14:07.471Z,18.60
2018-01-02T15:16:35.779Z,19.77
2018-01-02T15:19:04.107Z,19.87
2018-01-02T15:21:32.461Z,22.00
2018-01-02T15:24:00.775Z,14.80
2018-01-02T15:26:29.092Z,18.47
2018-01-02T15:28:57.405Z,16.90
2018-01-02T15:31:26.481Z,17.30
2018-01-02T15:33:55.118Z,16.00
2018-01-02T15:36:23.445Z,24.00
2018-01-02T15:38:52.510Z,20.47
2018-01-02T15:41:20.833Z,15.10
2018-01-02T15:43:49.983Z,22.87
2018-01-02T15:46:18.305Z,21.70
2018-01-02T15:48:47.372Z,21.77
2018-01-02T15:51:15.691Z,20.43
2018-01-02T15:53:45.498Z,23.50
2018-01-02T15:56:13.809Z,20.40
2018-01-02T15:58:42.898Z,17.30
2018-01-02T16:01:11.976Z,14.83
2018-01-02T16:03:41.127Z,23.80
2018-01-02T16:06:10.185Z,23.93
2018-01-02T16:08:39.266Z,13.60
2018-01-02T16:11:07.624Z,18.43
2018-01-02T16:13:36.024Z,15.00
2018-01-02T16:16:04.481Z,19.10
2018-01-02T16:18:32.818Z,13.73
2018-01-02T16:21:01.963Z,25.77
2018-01-02T16:23:30.446Z,34.30
2018-01-02T16:25:58.755Z,22.13
2018-01-02T16:28:27.087Z,25.20
2018-01-02T16:30:56.191Z,18.40
2018-01-02T16:33:26.086Z,15.93
2018-01-02T16:35:54.395Z,20.60
2018-01-02T16:38:23.630Z,17.30
2018-01-02T16:40:51.960Z,17.23
2018-01-02T16:43:21.032Z,22.47
2018-01-02T16:45:50.166Z,27.03
2018-01-02T16:48:19.674Z,18.90
2018-01-02T16:50:48.745Z,14.07
2018-01-02T16:53:17.146Z,19.43
2018-01-02T16:55:46.265Z,24.17
2018-01-02T16:58:15.330Z,19.20
2018-01-02T17:00:44.368Z,18.37
2018-01-02T17:03:12.710Z,22.23
2018-01-02T17:05:41.130Z,19.83
2018-01-02T17:08:10.228Z,20.40
2018-01-02T17:10:39.390Z,20.20
2018-01-02T17:13:07.834Z,28.00
2018-01-02T17:15:36.153Z,16.07
2018-01-02T17:20:39.083Z,15.90
2018-01-02T17:23:07.379Z,20.87
2018-01-02T17:25:36.570Z,19.70
2018-01-02T17:28:05.639Z,19.77
2018-01-02T17:30:33.940Z,24.53
2018-01-02T17:33:03.025Z,24.57
2018-01-02T17:35:31.357Z,22.00
2018-01-02T17:37:59.691Z,17.43
2018-01-02T17:40:28.034Z,18.13
2018-01-02T17:42:56.376Z,23.90
2018-01-02T17:45:25.518Z,18.83
2018-01-02T17:47:53.851Z,23.20
2018-01-02T17:50:22.193Z,28.73
2018-01-02T17:52:50.485Z,21.30
2018-01-02T17:55:18.974Z,20.53
2018-01-02T17:57:47.538Z,37.03
2018-01-02T18:00:15.911Z,31.43
2018-01-02T18:02:44.218Z,18.97
2018-01-02T18:05:12.514Z,20.53
2018-01-02T18:07:42.343Z,49.47
2018-01-02T18:10:10.679Z,68.83
2018-01-02T18:12:38.960Z,15.40
2018-01-02T18:15:07.253Z,14.73
2018-01-02T18:17:35.556Z,21.27
2018-01-02T18:20:03.852Z,40.27
2018-01-02T18:22:32.171Z,37.83
2018-01-02T18:25:00.486Z,65.17
2018-01-02T18:27:28.816Z,14.53
2018-01-02T18:29:57.913Z,30.00
2018-01-02T18:32:26.968Z,32.83
2018-01-02T18:34:55.290Z,35.93
2018-01-02T18:37:23.629Z,18.20
2018-01-02T18:39:51.929Z,23.57
2018-01-02T18:42:20.836Z,18.03
2018-01-02T18:44:49.915Z,32.20
2018-01-02T18:47:18.202Z,20.80
2018-01-02T18:49:46.548Z,37.80
2018-01-02T18:52:14.876Z,29.53
2018-01-02T18:54:43.244Z,12.80
2018-01-02T18:57:11.598Z,15.63
2018-01-02T18:59:40.267Z,27.23
2018-01-02T19:02:08.756Z,19.93
2018-01-02T19:04:37.414Z,14.63
2018-01-02T19:07:05.800Z,21.53
2018-01-02T19:09:34.411Z,26.20
2018-01-02T19:12:03.076Z,12.10
2018-01-02T19:14:31.428Z,15.10
2018-01-02T19:16:59.842Z,13.70
2018-01-02T19:19:29.272Z,19.75
2018-01-02T19:21:57.627Z,19.27
2018-01-02T19:24:26.860Z,21.23
2018-01-02T19:26:55.236Z,14.77
2018-01-02T19:29:24.537Z,13.90
2018-01-02T19:31:53.080Z,18.37
2018-01-02T19:34:22.202Z,12.67
2018-01-02T19:36:52.012Z,21.03
2018-01-02T19:39:20.376Z,11.90
2018-01-02T19:41:48.994Z,12.60
2018-01-02T19:44:17.526Z,16.60
2018-01-02T19:46:45.846Z,18.50
2018-01-02T19:49:14.342Z,15.10
2018-01-02T19:51:43.462Z,18.20
2018-01-02T19:54:12.802Z,14.87
2018-01-02T19:56:41.171Z,16.10
2018-01-02T19:59:09.478Z,14.30
2018-01-02T20:01:37.793Z,18.70
2018-01-02T20:04:06.145Z,16.80
2018-01-02T20:06:34.815Z,15.13
2018-01-02T20:09:03.530Z,17.97
2018-01-02T20:11:33.994Z,20.33
2018-01-02T20:14:02.891Z,19.47
2018-01-02T20:16:31.605Z,16.20
2018-01-02T20:18:59.978Z,19.40
2018-01-02T20:21:29.408Z,20.50
2018-01-02T20:23:57.752Z,20.20
2018-01-02T20:26:26.334Z,23.50
2018-01-02T20:28:56.247Z,21.50
2018-01-02T20:31:24.580Z,21.33
2018-01-02T20:33:52.936Z,24.50
2018-01-02T20:36:22.018Z,26.40
2018-01-02T20:38:50.632Z,24.63
2018-01-02T20:41:19.084Z,24.40
2018-01-02T20:43:47.656Z,24.60
2018-01-02T20:46:16.824Z,31.63
2018-01-02T20:48:45.471Z,28.23
2018-01-02T20:51:14.176Z,37.50
2018-01-02T20:53:42.563Z,38.20
2018-01-02T20:56:11.650Z,35.03
2018-01-02T20:58:39.974Z,41.43
2018-01-02T21:01:08.263Z,38.00
2018-01-02T21:03:37.097Z,31.93
2018-01-02T21:06:05.822Z,33.23
2018-01-02T21:08:34.549Z,38.63
2018-01-02T21:11:04.407Z,38.20
2018-01-02T21:13:33.382Z,35.63
2018-01-02T21:16:01.780Z,41.93
2018-01-02T21:18:30.878Z,40.90
2018-01-02T21:20:59.740Z,48.10
2018-01-02T21:23:28.068Z,36.30
2018-01-02T21:25:57.142Z,43.47
2018-01-02T21:28:25.454Z,47.43
2018-01-02T21:30:54.732Z,41.13
2018-01-02T21:33:23.369Z,44.37
2018-01-02T21:35:51.681Z,49.50
2018-01-02T21:38:20.089Z,49.17
2018-01-02T21:40:49.197Z,46.63
2018-01-02T21:43:17.563Z,42.20
2018-01-02T21:45:45.980Z,44.90
2018-01-02T21:48:15.425Z,60.10
2018-01-02T21:50:45.194Z,46.63
2018-01-02T21:53:13.924Z,45.97
2018-01-02T21:55:44.310Z,53.00
2018-01-02T21:58:16.129Z,35.30
2018-01-02T22:00:47.920Z,45.80
2018-01-02T22:03:17.045Z,46.87
2018-01-02T22:06:08.738Z,50.37
2018-01-02T22:08:37.167Z,45.97
2018-01-02T22:11:05.767Z,42.03
2018-01-02T22:13:36.669Z,41.07
2018-01-02T22:16:05.127Z,43.90
2018-01-02T22:18:33.448Z,43.00
2018-01-02T22:21:02.539Z,43.13
2018-01-02T22:23:31.042Z,50.73
2018-01-02T22:25:59.387Z,47.90
2018-01-02T22:28:27.712Z,50.17
2018-01-02T22:30:56.121Z,44.00
2018-01-02T22:33:24.481Z,40.17
2018-01-02T22:35:52.860Z,46.07
2018-01-02T22:38:21.225Z,49.13
2018-01-02T22:40:50.355Z,44.23
2018-01-02T22:43:18.680Z,47.97
2018-01-02T22:45:46.987Z,40.10
2018-01-02T22:48:16.070Z,44.60
2018-01-02T22:50:44.461Z,50.87
2018-01-02T22:53:12.797Z,43.90
2018-01-02T22:55:41.103Z,51.00
2018-01-02T22:58:09.443Z,52.07
2018-01-02T23:00:40.595Z,50.53
2018-01-02T23:03:08.917Z,47.40
2018-01-02T23:05:37.250Z,51.83
2018-01-02T23:08:05.549Z,50.97
2018-01-02T23:10:33.861Z,50.40
2018-01-02T23:13:02.173Z,53.00
2018-01-02T23:15:31.461Z,54.77
2018-01-02T23:17:59.787Z,41.33
2018-01-02T23:20:28.144Z,42.53
2018-01-02T23:22:57.245Z,35.47
2018-01-02T23:25:25.619Z,45.80
2018-01-02T23:27:54.701Z,32.17
2018-01-02T23:30:23.041Z,34.80
2018-01-02T23:32:51.359Z,34.70
2018-01-02T23:35:19.673Z,35.93
2018-01-02T23:37:48.805Z,35.00
2018-01-02T23:40:17.152Z,44.63
2018-01-02T23:42:46.230Z,38.77
2018-01-02T23:45:14.560Z,35.17
2018-01-02T23:47:42.890Z,38.47
2018-01-02T23:50:11.195Z,24.13
2018-01-02T23:52:40.399Z,27.33
2018-01-02T23:55:09.497Z,36.97
2018-01-02T23:57:38.598Z,32.63
